sensor_id;sensor_type;location;lat;lon;timestamp;P1;durP1;ratioP1;P2;durP2;ratioP2
21330;SDS011;10824;51.632;4.950;2023-04-06T00:01:43;7.07;;;4.05;;
21330;SDS011;10824;51.632;4.950;2023-04-06T00:04:10;9.35;;;5.25;;
21330;SDS011;10824;51.632;4.950;2023-04-06T00:06:38;9.05;;;4.57;;
21330;SDS011;10824;51.632;4.950;2023-04-06T00:09:04;8.63;;;4.68;;
21330;SDS011;10824;51.632;4.950;2023-04-06T00:11:32;7.55;;;3.50;;
21330;SDS011;10824;51.632;4.950;2023-04-06T00:13:59;11.80;;;4.60;;
21330;SDS011;10824;51.632;4.950;2023-04-06T00:16:26;5.45;;;3.17;;
21330;SDS011;10824;51.632;4.950;2023-04-06T00:18:56;9.43;;;4.75;;
21330;SDS011;10824;51.632;4.950;2023-04-06T00:21:23;14.20;;;4.10;;
21330;SDS011;10824;51.632;4.950;2023-04-06T00:23:50;9.77;;;3.50;;
21330;SDS011;10824;51.632;4.950;2023-04-06T00:26:17;8.05;;;4.15;;
21330;SDS011;10824;51.632;4.950;2023-04-06T00:28:46;8.55;;;4.00;;
21330;SDS011;10824;51.632;4.950;2023-04-06T00:31:13;11.05;;;4.22;;
21330;SDS011;10824;51.632;4.950;2023-04-06T00:33:40;7.80;;;4.40;;
21330;SDS011;10824;51.632;4.950;2023-04-06T00:36:07;7.15;;;4.03;;
21330;SDS011;10824;51.632;4.950;2023-04-06T00:38:34;9.15;;;4.82;;
21330;SDS011;10824;51.632;4.950;2023-04-06T00:41:02;11.50;;;5.35;;
21330;SDS011;10824;51.632;4.950;2023-04-06T00:43:31;8.60;;;4.03;;
21330;SDS011;10824;51.632;4.950;2023-04-06T00:45:58;8.05;;;4.70;;
21330;SDS011;10824;51.632;4.950;2023-04-06T00:48:25;7.57;;;4.18;;
21330;SDS011;10824;51.632;4.950;2023-04-06T00:50:52;10.70;;;4.05;;
21330;SDS011;10824;51.632;4.950;2023-04-06T00:53:20;8.73;;;4.95;;
21330;SDS011;10824;51.632;4.950;2023-04-06T00:55:48;7.57;;;4.07;;
21330;SDS011;10824;51.632;4.950;2023-04-06T00:58:16;9.98;;;4.72;;
21330;SDS011;10824;51.632;4.950;2023-04-06T01:00:50;10.60;;;5.53;;
21330;SDS011;10824;51.632;4.950;2023-04-06T01:03:20;8.90;;;4.90;;
21330;SDS011;10824;51.632;4.950;2023-04-06T01:05:47;7.22;;;4.30;;
21330;SDS011;10824;51.632;4.950;2023-04-06T01:08:19;9.35;;;4.47;;
21330;SDS011;10824;51.632;4.950;2023-04-06T01:10:51;8.32;;;3.97;;
21330;SDS011;10824;51.632;4.950;2023-04-06T01:13:24;13.10;;;5.05;;
21330;SDS011;10824;51.632;4.950;2023-04-06T01:15:54;10.55;;;5.40;;
21330;SDS011;10824;51.632;4.950;2023-04-06T01:18:42;7.97;;;4.75;;
21330;SDS011;10824;51.632;4.950;2023-04-06T01:21:19;15.80;;;5.38;;
21330;SDS011;10824;51.632;4.950;2023-04-06T01:24:09;9.00;;;5.63;;
21330;SDS011;10824;51.632;4.950;2023-04-06T01:26:58;9.90;;;4.20;;
21330;SDS011;10824;51.632;4.950;2023-04-06T01:29:30;10.30;;;4.28;;
21330;SDS011;10824;51.632;4.950;2023-04-06T01:32:00;10.98;;;4.90;;
21330;SDS011;10824;51.632;4.950;2023-04-06T01:34:33;7.25;;;4.82;;
21330;SDS011;10824;51.632;4.950;2023-04-06T01:37:03;11.18;;;5.43;;
21330;SDS011;10824;51.632;4.950;2023-04-06T01:39:30;8.70;;;4.15;;
21330;SDS011;10824;51.632;4.950;2023-04-06T01:42:00;11.85;;;4.68;;
21330;SDS011;10824;51.632;4.950;2023-04-06T01:44:28;12.90;;;5.45;;
21330;SDS011;10824;51.632;4.950;2023-04-06T01:47:05;17.95;;;5.50;;
21330;SDS011;10824;51.632;4.950;2023-04-06T01:49:33;14.18;;;4.55;;
21330;SDS011;10824;51.632;4.950;2023-04-06T01:52:01;10.90;;;4.78;;
21330;SDS011;10824;51.632;4.950;2023-04-06T01:54:30;9.15;;;4.50;;
21330;SDS011;10824;51.632;4.950;2023-04-06T01:57:10;8.30;;;5.22;;
21330;SDS011;10824;51.632;4.950;2023-04-06T01:59:42;9.38;;;5.18;;
21330;SDS011;10824;51.632;4.950;2023-04-06T02:02:17;11.80;;;4.72;;
21330;SDS011;10824;51.632;4.950;2023-04-06T02:04:54;12.60;;;4.57;;
21330;SDS011;10824;51.632;4.950;2023-04-06T02:07:21;10.02;;;6.50;;
21330;SDS011;10824;51.632;4.950;2023-04-06T02:09:48;13.52;;;6.05;;
21330;SDS011;10824;51.632;4.950;2023-04-06T02:12:23;14.05;;;4.68;;
21330;SDS011;10824;51.632;4.950;2023-04-06T02:14:51;12.88;;;5.78;;
21330;SDS011;10824;51.632;4.950;2023-04-06T02:17:19;12.50;;;5.78;;
21330;SDS011;10824;51.632;4.950;2023-04-06T02:19:46;12.15;;;4.57;;
21330;SDS011;10824;51.632;4.950;2023-04-06T02:22:13;13.90;;;5.65;;
21330;SDS011;10824;51.632;4.950;2023-04-06T02:24:40;14.27;;;6.15;;
21330;SDS011;10824;51.632;4.950;2023-04-06T02:27:07;10.88;;;6.47;;
21330;SDS011;10824;51.632;4.950;2023-04-06T02:29:34;13.07;;;6.45;;
21330;SDS011;10824;51.632;4.950;2023-04-06T02:32:03;9.07;;;4.95;;
21330;SDS011;10824;51.632;4.950;2023-04-06T02:34:31;11.65;;;5.28;;
21330;SDS011;10824;51.632;4.950;2023-04-06T02:36:59;12.32;;;5.95;;
21330;SDS011;10824;51.632;4.950;2023-04-06T02:39:26;11.07;;;5.93;;
21330;SDS011;10824;51.632;4.950;2023-04-06T02:41:54;14.65;;;6.60;;
21330;SDS011;10824;51.632;4.950;2023-04-06T02:44:24;12.30;;;6.93;;
21330;SDS011;10824;51.632;4.950;2023-04-06T02:46:52;14.85;;;6.18;;
21330;SDS011;10824;51.632;4.950;2023-04-06T02:49:21;12.35;;;5.40;;
21330;SDS011;10824;51.632;4.950;2023-04-06T02:51:49;19.25;;;6.45;;
21330;SDS011;10824;51.632;4.950;2023-04-06T02:54:21;12.23;;;5.78;;
21330;SDS011;10824;51.632;4.950;2023-04-06T02:56:49;14.55;;;6.35;;
21330;SDS011;10824;51.632;4.950;2023-04-06T02:59:16;11.32;;;6.72;;
21330;SDS011;10824;51.632;4.950;2023-04-06T03:01:54;12.65;;;6.28;;
21330;SDS011;10824;51.632;4.950;2023-04-06T03:04:22;12.07;;;5.65;;
21330;SDS011;10824;51.632;4.950;2023-04-06T03:06:53;14.98;;;6.00;;
21330;SDS011;10824;51.632;4.950;2023-04-06T03:09:32;13.73;;;6.10;;
21330;SDS011;10824;51.632;4.950;2023-04-06T03:12:00;15.13;;;7.55;;
21330;SDS011;10824;51.632;4.950;2023-04-06T03:14:32;14.85;;;6.63;;
21330;SDS011;10824;51.632;4.950;2023-04-06T03:17:00;14.70;;;5.78;;
21330;SDS011;10824;51.632;4.950;2023-04-06T03:19:28;13.68;;;5.72;;
21330;SDS011;10824;51.632;4.950;2023-04-06T03:21:58;15.48;;;6.72;;
21330;SDS011;10824;51.632;4.950;2023-04-06T03:24:25;13.82;;;6.63;;
21330;SDS011;10824;51.632;4.950;2023-04-06T03:26:52;13.98;;;6.38;;
21330;SDS011;10824;51.632;4.950;2023-04-06T03:29:19;12.45;;;6.00;;
21330;SDS011;10824;51.632;4.950;2023-04-06T03:31:46;14.48;;;5.80;;
21330;SDS011;10824;51.632;4.950;2023-04-06T03:34:23;11.55;;;5.72;;
21330;SDS011;10824;51.632;4.950;2023-04-06T03:36:50;15.90;;;6.72;;
21330;SDS011;10824;51.632;4.950;2023-04-06T03:39:36;15.20;;;7.40;;
21330;SDS011;10824;51.632;4.950;2023-04-06T03:42:04;11.50;;;5.90;;
21330;SDS011;10824;51.632;4.950;2023-04-06T03:44:33;17.45;;;7.25;;
21330;SDS011;10824;51.632;4.950;2023-04-06T03:47:02;18.50;;;6.40;;
21330;SDS011;10824;51.632;4.950;2023-04-06T03:49:31;10.65;;;6.13;;
21330;SDS011;10824;51.632;4.950;2023-04-06T03:52:00;14.85;;;5.93;;
21330;SDS011;10824;51.632;4.950;2023-04-06T03:54:28;13.05;;;5.32;;
21330;SDS011;10824;51.632;4.950;2023-04-06T03:56:55;16.17;;;6.10;;
21330;SDS011;10824;51.632;4.950;2023-04-06T03:59:26;15.27;;;6.70;;
21330;SDS011;10824;51.632;4.950;2023-04-06T04:01:54;12.20;;;6.13;;
21330;SDS011;10824;51.632;4.950;2023-04-06T04:04:22;12.73;;;6.05;;
21330;SDS011;10824;51.632;4.950;2023-04-06T04:06:50;13.48;;;7.20;;
21330;SDS011;10824;51.632;4.950;2023-04-06T04:09:17;15.30;;;7.40;;
21330;SDS011;10824;51.632;4.950;2023-04-06T04:11:44;12.07;;;6.80;;
21330;SDS011;10824;51.632;4.950;2023-04-06T04:14:12;12.10;;;6.22;;
21330;SDS011;10824;51.632;4.950;2023-04-06T04:16:39;14.73;;;6.97;;
21330;SDS011;10824;51.632;4.950;2023-04-06T04:19:08;16.25;;;6.07;;
21330;SDS011;10824;51.632;4.950;2023-04-06T04:21:42;14.40;;;6.18;;
21330;SDS011;10824;51.632;4.950;2023-04-06T04:24:14;12.00;;;5.88;;
21330;SDS011;10824;51.632;4.950;2023-04-06T04:26:41;12.70;;;6.00;;
21330;SDS011;10824;51.632;4.950;2023-04-06T04:29:08;17.20;;;8.00;;
21330;SDS011;10824;51.632;4.950;2023-04-06T04:31:37;10.38;;;5.95;;
21330;SDS011;10824;51.632;4.950;2023-04-06T04:34:11;10.65;;;5.22;;
21330;SDS011;10824;51.632;4.950;2023-04-06T04:36:38;11.88;;;6.68;;
21330;SDS011;10824;51.632;4.950;2023-04-06T04:39:11;20.70;;;6.90;;
21330;SDS011;10824;51.632;4.950;2023-04-06T04:41:43;13.70;;;7.10;;
21330;SDS011;10824;51.632;4.950;2023-04-06T04:44:11;15.15;;;6.18;;
21330;SDS011;10824;51.632;4.950;2023-04-06T04:46:38;14.48;;;7.20;;
21330;SDS011;10824;51.632;4.950;2023-04-06T04:49:07;14.80;;;5.65;;
21330;SDS011;10824;51.632;4.950;2023-04-06T04:51:35;14.32;;;5.93;;
21330;SDS011;10824;51.632;4.950;2023-04-06T04:54:10;14.45;;;5.72;;
21330;SDS011;10824;51.632;4.950;2023-04-06T04:56:38;14.45;;;6.78;;
21330;SDS011;10824;51.632;4.950;2023-04-06T04:59:26;13.73;;;6.72;;
21330;SDS011;10824;51.632;4.950;2023-04-06T05:01:59;15.60;;;6.05;;
21330;SDS011;10824;51.632;4.950;2023-04-06T05:04:46;15.63;;;7.18;;
21330;SDS011;10824;51.632;4.950;2023-04-06T05:07:19;16.92;;;5.38;;
21330;SDS011;10824;51.632;4.950;2023-04-06T05:09:48;13.25;;;6.20;;
21330;SDS011;10824;51.632;4.950;2023-04-06T05:12:17;15.70;;;6.78;;
21330;SDS011;10824;51.632;4.950;2023-04-06T05:14:59;12.98;;;5.30;;
21330;SDS011;10824;51.632;4.950;2023-04-06T05:17:26;11.82;;;5.32;;
21330;SDS011;10824;51.632;4.950;2023-04-06T05:19:54;12.13;;;6.78;;
21330;SDS011;10824;51.632;4.950;2023-04-06T05:22:23;17.27;;;5.88;;
21330;SDS011;10824;51.632;4.950;2023-04-06T05:25:02;13.93;;;5.70;;
21330;SDS011;10824;51.632;4.950;2023-04-06T05:27:30;16.05;;;5.88;;
21330;SDS011;10824;51.632;4.950;2023-04-06T05:30:01;14.93;;;6.53;;
21330;SDS011;10824;51.632;4.950;2023-04-06T05:32:33;14.35;;;7.40;;
21330;SDS011;10824;51.632;4.950;2023-04-06T05:35:01;17.52;;;6.80;;
21330;SDS011;10824;51.632;4.950;2023-04-06T05:37:29;12.32;;;8.30;;
21330;SDS011;10824;51.632;4.950;2023-04-06T05:39:58;14.27;;;6.90;;
21330;SDS011;10824;51.632;4.950;2023-04-06T05:42:25;14.10;;;6.35;;
21330;SDS011;10824;51.632;4.950;2023-04-06T05:47:25;9.45;;;4.82;;
21330;SDS011;10824;51.632;4.950;2023-04-06T05:50:01;13.73;;;6.38;;
21330;SDS011;10824;51.632;4.950;2023-04-06T05:52:32;10.60;;;6.60;;
21330;SDS011;10824;51.632;4.950;2023-04-06T05:55:00;15.05;;;5.78;;
21330;SDS011;10824;51.632;4.950;2023-04-06T05:57:28;13.50;;;5.68;;
21330;SDS011;10824;51.632;4.950;2023-04-06T05:59:55;12.93;;;5.47;;
21330;SDS011;10824;51.632;4.950;2023-04-06T06:02:27;11.20;;;5.65;;
21330;SDS011;10824;51.632;4.950;2023-04-06T06:04:56;12.32;;;6.20;;
21330;SDS011;10824;51.632;4.950;2023-04-06T06:07:25;20.48;;;7.57;;
21330;SDS011;10824;51.632;4.950;2023-04-06T06:09:57;14.75;;;5.35;;
21330;SDS011;10824;51.632;4.950;2023-04-06T06:12:30;11.68;;;5.82;;
21330;SDS011;10824;51.632;4.950;2023-04-06T06:14:58;14.80;;;6.30;;
21330;SDS011;10824;51.632;4.950;2023-04-06T06:17:26;15.13;;;6.35;;
21330;SDS011;10824;51.632;4.950;2023-04-06T06:19:54;13.82;;;5.47;;
21330;SDS011;10824;51.632;4.950;2023-04-06T06:22:21;12.13;;;6.57;;
21330;SDS011;10824;51.632;4.950;2023-04-06T06:24:49;11.20;;;5.78;;
21330;SDS011;10824;51.632;4.950;2023-04-06T06:27:18;15.85;;;5.85;;
21330;SDS011;10824;51.632;4.950;2023-04-06T06:29:46;16.05;;;6.13;;
21330;SDS011;10824;51.632;4.950;2023-04-06T06:32:14;15.05;;;6.72;;
21330;SDS011;10824;51.632;4.950;2023-04-06T06:34:41;16.58;;;5.07;;
21330;SDS011;10824;51.632;4.950;2023-04-06T06:37:09;12.18;;;6.43;;
21330;SDS011;10824;51.632;4.950;2023-04-06T06:39:37;12.25;;;6.25;;
21330;SDS011;10824;51.632;4.950;2023-04-06T06:42:05;15.60;;;7.00;;
21330;SDS011;10824;51.632;4.950;2023-04-06T06:44:52;14.65;;;6.10;;
21330;SDS011;10824;51.632;4.950;2023-04-06T06:47:20;15.52;;;7.10;;
21330;SDS011;10824;51.632;4.950;2023-04-06T06:49:47;16.25;;;7.00;;
21330;SDS011;10824;51.632;4.950;2023-04-06T06:52:14;11.85;;;5.82;;
21330;SDS011;10824;51.632;4.950;2023-04-06T06:54:43;14.85;;;6.80;;
21330;SDS011;10824;51.632;4.950;2023-04-06T06:57:10;13.48;;;5.15;;
21330;SDS011;10824;51.632;4.950;2023-04-06T06:59:37;17.30;;;6.93;;
21330;SDS011;10824;51.632;4.950;2023-04-06T07:02:05;13.27;;;6.78;;
21330;SDS011;10824;51.632;4.950;2023-04-06T07:04:32;14.25;;;6.97;;
21330;SDS011;10824;51.632;4.950;2023-04-06T07:07:00;12.55;;;6.05;;
21330;SDS011;10824;51.632;4.950;2023-04-06T07:09:27;11.85;;;5.25;;
21330;SDS011;10824;51.632;4.950;2023-04-06T07:11:54;14.80;;;6.00;;
21330;SDS011;10824;51.632;4.950;2023-04-06T07:14:23;15.25;;;7.22;;
21330;SDS011;10824;51.632;4.950;2023-04-06T07:16:50;19.67;;;6.05;;
21330;SDS011;10824;51.632;4.950;2023-04-06T07:19:18;15.45;;;6.63;;
21330;SDS011;10824;51.632;4.950;2023-04-06T07:21:45;14.18;;;6.13;;
21330;SDS011;10824;51.632;4.950;2023-04-06T07:24:12;22.83;;;6.57;;
21330;SDS011;10824;51.632;4.950;2023-04-06T07:26:42;13.38;;;6.10;;
21330;SDS011;10824;51.632;4.950;2023-04-06T07:29:11;20.35;;;7.78;;
21330;SDS011;10824;51.632;4.950;2023-04-06T07:31:40;14.65;;;6.47;;
21330;SDS011;10824;51.632;4.950;2023-04-06T07:34:07;19.10;;;8.43;;
21330;SDS011;10824;51.632;4.950;2023-04-06T07:36:35;14.60;;;6.93;;
21330;SDS011;10824;51.632;4.950;2023-04-06T07:39:03;11.52;;;6.10;;
21330;SDS011;10824;51.632;4.950;2023-04-06T07:41:31;26.75;;;8.98;;
21330;SDS011;10824;51.632;4.950;2023-04-06T07:43:59;17.35;;;5.72;;
21330;SDS011;10824;51.632;4.950;2023-04-06T07:46:27;15.02;;;7.18;;
21330;SDS011;10824;51.632;4.950;2023-04-06T07:48:55;11.55;;;5.80;;
21330;SDS011;10824;51.632;4.950;2023-04-06T07:51:24;15.35;;;7.38;;
21330;SDS011;10824;51.632;4.950;2023-04-06T07:53:52;15.98;;;6.93;;
21330;SDS011;10824;51.632;4.950;2023-04-06T07:56:19;15.73;;;6.50;;
21330;SDS011;10824;51.632;4.950;2023-04-06T07:58:48;19.17;;;7.28;;
21330;SDS011;10824;51.632;4.950;2023-04-06T08:01:18;13.77;;;7.90;;
21330;SDS011;10824;51.632;4.950;2023-04-06T08:03:45;14.60;;;5.72;;
21330;SDS011;10824;51.632;4.950;2023-04-06T08:06:13;13.95;;;6.15;;
21330;SDS011;10824;51.632;4.950;2023-04-06T08:08:41;14.38;;;6.25;;
21330;SDS011;10824;51.632;4.950;2023-04-06T08:11:08;14.57;;;6.55;;
21330;SDS011;10824;51.632;4.950;2023-04-06T08:13:35;17.88;;;7.53;;
21330;SDS011;10824;51.632;4.950;2023-04-06T08:16:03;13.50;;;6.63;;
21330;SDS011;10824;51.632;4.950;2023-04-06T08:18:31;11.98;;;6.68;;
21330;SDS011;10824;51.632;4.950;2023-04-06T08:20:59;15.40;;;6.13;;
21330;SDS011;10824;51.632;4.950;2023-04-06T08:23:27;14.77;;;6.93;;
21330;SDS011;10824;51.632;4.950;2023-04-06T08:25:54;13.90;;;6.53;;
21330;SDS011;10824;51.632;4.950;2023-04-06T08:28:22;19.65;;;7.50;;
21330;SDS011;10824;51.632;4.950;2023-04-06T08:30:49;13.98;;;6.57;;
21330;SDS011;10824;51.632;4.950;2023-04-06T08:33:16;15.48;;;7.05;;
21330;SDS011;10824;51.632;4.950;2023-04-06T08:35:43;12.43;;;6.75;;
21330;SDS011;10824;51.632;4.950;2023-04-06T08:38:11;16.45;;;6.22;;
21330;SDS011;10824;51.632;4.950;2023-04-06T08:40:38;16.33;;;6.50;;
21330;SDS011;10824;51.632;4.950;2023-04-06T08:43:06;13.90;;;6.40;;
21330;SDS011;10824;51.632;4.950;2023-04-06T08:48:05;15.80;;;7.13;;
21330;SDS011;10824;51.632;4.950;2023-04-06T08:50:33;12.88;;;6.43;;
21330;SDS011;10824;51.632;4.950;2023-04-06T08:53:02;14.75;;;7.03;;
21330;SDS011;10824;51.632;4.950;2023-04-06T08:55:29;14.68;;;6.82;;
21330;SDS011;10824;51.632;4.950;2023-04-06T08:57:57;14.32;;;5.88;;
21330;SDS011;10824;51.632;4.950;2023-04-06T09:00:26;16.48;;;6.07;;
21330;SDS011;10824;51.632;4.950;2023-04-06T09:02:54;14.43;;;5.25;;
21330;SDS011;10824;51.632;4.950;2023-04-06T09:05:24;16.33;;;6.55;;
21330;SDS011;10824;51.632;4.950;2023-04-06T09:07:52;12.98;;;6.13;;
21330;SDS011;10824;51.632;4.950;2023-04-06T09:10:19;16.98;;;6.05;;
21330;SDS011;10824;51.632;4.950;2023-04-06T09:12:47;20.35;;;6.10;;
21330;SDS011;10824;51.632;4.950;2023-04-06T09:15:19;9.52;;;5.45;;
21330;SDS011;10824;51.632;4.950;2023-04-06T09:17:50;10.68;;;4.10;;
21330;SDS011;10824;51.632;4.950;2023-04-06T09:20:22;18.23;;;4.13;;
21330;SDS011;10824;51.632;4.950;2023-04-06T09:22:54;13.50;;;5.32;;
21330;SDS011;10824;51.632;4.950;2023-04-06T09:25:23;7.57;;;3.30;;
21330;SDS011;10824;51.632;4.950;2023-04-06T09:28:00;7.65;;;4.13;;
21330;SDS011;10824;51.632;4.950;2023-04-06T09:30:29;7.00;;;3.22;;
21330;SDS011;10824;51.632;4.950;2023-04-06T09:32:57;8.15;;;3.53;;
21330;SDS011;10824;51.632;4.950;2023-04-06T09:35:26;8.40;;;4.35;;
21330;SDS011;10824;51.632;4.950;2023-04-06T09:37:53;6.90;;;3.08;;
21330;SDS011;10824;51.632;4.950;2023-04-06T09:40:22;7.70;;;3.30;;
21330;SDS011;10824;51.632;4.950;2023-04-06T09:42:49;9.68;;;3.40;;
21330;SDS011;10824;51.632;4.950;2023-04-06T09:45:19;7.78;;;3.58;;
21330;SDS011;10824;51.632;4.950;2023-04-06T09:47:47;4.55;;;3.95;;
21330;SDS011;10824;51.632;4.950;2023-04-06T09:50:17;7.63;;;3.58;;
21330;SDS011;10824;51.632;4.950;2023-04-06T09:52:47;5.85;;;3.03;;
21330;SDS011;10824;51.632;4.950;2023-04-06T09:55:20;8.77;;;3.50;;
21330;SDS011;10824;51.632;4.950;2023-04-06T09:58:05;6.93;;;3.03;;
21330;SDS011;10824;51.632;4.950;2023-04-06T10:00:35;8.30;;;3.53;;
21330;SDS011;10824;51.632;4.950;2023-04-06T10:03:16;5.20;;;3.25;;
21330;SDS011;10824;51.632;4.950;2023-04-06T10:05:55;6.63;;;3.03;;
21330;SDS011;10824;51.632;4.950;2023-04-06T10:08:27;7.35;;;3.42;;
21330;SDS011;10824;51.632;4.950;2023-04-06T10:10:58;9.73;;;4.38;;
21330;SDS011;10824;51.632;4.950;2023-04-06T10:13:26;6.22;;;2.92;;
21330;SDS011;10824;51.632;4.950;2023-04-06T10:15:55;5.82;;;2.53;;
21330;SDS011;10824;51.632;4.950;2023-04-06T10:18:23;6.25;;;2.25;;
21330;SDS011;10824;51.632;4.950;2023-04-06T10:23:35;4.35;;;3.15;;
21330;SDS011;10824;51.632;4.950;2023-04-06T10:26:05;5.78;;;2.88;;
21330;SDS011;10824;51.632;4.950;2023-04-06T10:28:40;8.00;;;3.15;;
21330;SDS011;10824;51.632;4.950;2023-04-06T10:31:08;4.68;;;2.92;;
21330;SDS011;10824;51.632;4.950;2023-04-06T10:33:35;5.20;;;2.53;;
21330;SDS011;10824;51.632;4.950;2023-04-06T10:36:13;6.60;;;3.33;;
21330;SDS011;10824;51.632;4.950;2023-04-06T10:38:42;4.90;;;2.60;;
21330;SDS011;10824;51.632;4.950;2023-04-06T10:41:10;8.43;;;3.47;;
21330;SDS011;10824;51.632;4.950;2023-04-06T10:43:40;6.53;;;2.80;;
21330;SDS011;10824;51.632;4.950;2023-04-06T10:46:10;6.90;;;3.10;;
21330;SDS011;10824;51.632;4.950;2023-04-06T10:48:42;8.02;;;2.95;;
21330;SDS011;10824;51.632;4.950;2023-04-06T10:51:15;6.00;;;3.25;;
21330;SDS011;10824;51.632;4.950;2023-04-06T10:53:43;11.02;;;2.33;;
21330;SDS011;10824;51.632;4.950;2023-04-06T10:56:13;6.55;;;2.70;;
21330;SDS011;10824;51.632;4.950;2023-04-06T10:58:45;7.05;;;2.70;;
21330;SDS011;10824;51.632;4.950;2023-04-06T11:01:18;6.05;;;3.13;;
21330;SDS011;10824;51.632;4.950;2023-04-06T11:03:51;8.70;;;2.60;;
21330;SDS011;10824;51.632;4.950;2023-04-06T11:06:23;8.60;;;3.80;;
21330;SDS011;10824;51.632;4.950;2023-04-06T11:08:58;7.85;;;3.38;;
21330;SDS011;10824;51.632;4.950;2023-04-06T11:11:26;7.15;;;2.88;;
21330;SDS011;10824;51.632;4.950;2023-04-06T11:13:58;7.35;;;2.80;;
21330;SDS011;10824;51.632;4.950;2023-04-06T11:16:27;5.53;;;2.50;;
21330;SDS011;10824;51.632;4.950;2023-04-06T11:18:57;5.47;;;3.38;;
21330;SDS011;10824;51.632;4.950;2023-04-06T11:21:33;4.38;;;2.50;;
21330;SDS011;10824;51.632;4.950;2023-04-06T11:26:37;6.78;;;3.53;;
21330;SDS011;10824;51.632;4.950;2023-04-06T11:29:05;10.50;;;3.67;;
21330;SDS011;10824;51.632;4.950;2023-04-06T11:31:42;2.92;;;2.28;;
21330;SDS011;10824;51.632;4.950;2023-04-06T11:34:21;4.45;;;2.33;;
21330;SDS011;10824;51.632;4.950;2023-04-06T11:36:54;6.40;;;3.03;;
21330;SDS011;10824;51.632;4.950;2023-04-06T11:39:24;6.03;;;2.78;;
21330;SDS011;10824;51.632;4.950;2023-04-06T11:41:54;4.45;;;2.67;;
21330;SDS011;10824;51.632;4.950;2023-04-06T11:46:57;6.25;;;3.20;;
21330;SDS011;10824;51.632;4.950;2023-04-06T11:49:27;8.18;;;2.70;;
21330;SDS011;10824;51.632;4.950;2023-04-06T11:51:57;4.38;;;2.70;;
21330;SDS011;10824;51.632;4.950;2023-04-06T11:54:37;8.90;;;3.38;;
21330;SDS011;10824;51.632;4.950;2023-04-06T11:57:05;6.72;;;3.25;;
21330;SDS011;10824;51.632;4.950;2023-04-06T11:59:32;6.45;;;3.08;;
21330;SDS011;10824;51.632;4.950;2023-04-06T12:02:03;5.22;;;3.08;;
21330;SDS011;10824;51.632;4.950;2023-04-06T12:04:31;5.95;;;3.15;;
21330;SDS011;10824;51.632;4.950;2023-04-06T12:07:00;8.60;;;3.83;;
21330;SDS011;10824;51.632;4.950;2023-04-06T12:09:27;7.72;;;3.58;;
21330;SDS011;10824;51.632;4.950;2023-04-06T12:11:56;6.68;;;3.55;;
21330;SDS011;10824;51.632;4.950;2023-04-06T12:14:24;7.57;;;4.22;;
21330;SDS011;10824;51.632;4.950;2023-04-06T12:16:51;9.15;;;4.63;;
21330;SDS011;10824;51.632;4.950;2023-04-06T12:19:19;5.53;;;3.25;;
21330;SDS011;10824;51.632;4.950;2023-04-06T12:21:46;11.45;;;4.50;;
21330;SDS011;10824;51.632;4.950;2023-04-06T12:24:13;4.60;;;2.95;;
21330;SDS011;10824;51.632;4.950;2023-04-06T12:26:42;9.52;;;3.25;;
21330;SDS011;10824;51.632;4.950;2023-04-06T12:29:13;8.45;;;3.95;;
21330;SDS011;10824;51.632;4.950;2023-04-06T12:31:41;6.85;;;3.80;;
21330;SDS011;10824;51.632;4.950;2023-04-06T12:34:11;7.57;;;3.42;;
21330;SDS011;10824;51.632;4.950;2023-04-06T12:36:39;7.65;;;4.30;;
21330;SDS011;10824;51.632;4.950;2023-04-06T12:39:06;7.15;;;3.55;;
21330;SDS011;10824;51.632;4.950;2023-04-06T12:41:34;8.57;;;3.67;;
21330;SDS011;10824;51.632;4.950;2023-04-06T12:44:02;7.18;;;3.50;;
21330;SDS011;10824;51.632;4.950;2023-04-06T12:46:29;7.75;;;3.88;;
21330;SDS011;10824;51.632;4.950;2023-04-06T12:48:58;7.45;;;3.20;;
21330;SDS011;10824;51.632;4.950;2023-04-06T12:51:29;12.23;;;3.67;;
21330;SDS011;10824;51.632;4.950;2023-04-06T12:53:58;6.20;;;4.32;;
21330;SDS011;10824;51.632;4.950;2023-04-06T12:56:25;6.13;;;2.80;;
21330;SDS011;10824;51.632;4.950;2023-04-06T12:58:54;11.32;;;3.85;;
21330;SDS011;10824;51.632;4.950;2023-04-06T13:01:22;6.97;;;3.05;;
21330;SDS011;10824;51.632;4.950;2023-04-06T13:03:49;10.48;;;4.78;;
21330;SDS011;10824;51.632;4.950;2023-04-06T13:06:19;6.00;;;3.20;;
21330;SDS011;10824;51.632;4.950;2023-04-06T13:08:46;7.18;;;3.60;;
21330;SDS011;10824;51.632;4.950;2023-04-06T13:11:16;6.35;;;2.95;;
21330;SDS011;10824;51.632;4.950;2023-04-06T13:13:43;6.30;;;3.17;;
21330;SDS011;10824;51.632;4.950;2023-04-06T13:16:12;7.20;;;3.00;;
21330;SDS011;10824;51.632;4.950;2023-04-06T13:18:39;5.13;;;3.40;;
21330;SDS011;10824;51.632;4.950;2023-04-06T13:21:07;6.15;;;3.58;;
21330;SDS011;10824;51.632;4.950;2023-04-06T13:23:37;8.07;;;4.40;;
21330;SDS011;10824;51.632;4.950;2023-04-06T13:26:05;11.20;;;4.28;;
21330;SDS011;10824;51.632;4.950;2023-04-06T13:28:34;4.88;;;3.60;;
21330;SDS011;10824;51.632;4.950;2023-04-06T13:31:04;7.90;;;4.63;;
21330;SDS011;10824;51.632;4.950;2023-04-06T13:33:33;7.20;;;3.78;;
21330;SDS011;10824;51.632;4.950;2023-04-06T13:36:02;5.50;;;3.97;;
21330;SDS011;10824;51.632;4.950;2023-04-06T13:38:29;6.47;;;3.38;;
21330;SDS011;10824;51.632;4.950;2023-04-06T13:40:57;5.35;;;3.45;;
21330;SDS011;10824;51.632;4.950;2023-04-06T13:43:25;5.38;;;2.67;;
21330;SDS011;10824;51.632;4.950;2023-04-06T13:45:53;6.15;;;3.58;;
21330;SDS011;10824;51.632;4.950;2023-04-06T13:48:22;5.72;;;4.05;;
21330;SDS011;10824;51.632;4.950;2023-04-06T13:50:51;8.95;;;3.92;;
21330;SDS011;10824;51.632;4.950;2023-04-06T13:53:19;7.22;;;3.30;;
21330;SDS011;10824;51.632;4.950;2023-04-06T13:55:55;4.95;;;2.88;;
21330;SDS011;10824;51.632;4.950;2023-04-06T13:58:22;6.00;;;3.35;;
21330;SDS011;10824;51.632;4.950;2023-04-06T14:00:50;5.78;;;3.95;;
21330;SDS011;10824;51.632;4.950;2023-04-06T14:03:20;5.82;;;3.83;;
21330;SDS011;10824;51.632;4.950;2023-04-06T14:05:48;7.03;;;3.83;;
21330;SDS011;10824;51.632;4.950;2023-04-06T14:08:15;10.20;;;4.80;;
21330;SDS011;10824;51.632;4.950;2023-04-06T14:10:44;11.55;;;3.55;;
21330;SDS011;10824;51.632;4.950;2023-04-06T14:13:15;6.78;;;3.38;;
21330;SDS011;10824;51.632;4.950;2023-04-06T14:15:43;4.75;;;3.47;;
21330;SDS011;10824;51.632;4.950;2023-04-06T14:18:10;8.50;;;3.47;;
21330;SDS011;10824;51.632;4.950;2023-04-06T14:20:37;7.03;;;3.28;;
21330;SDS011;10824;51.632;4.950;2023-04-06T14:23:04;6.35;;;3.55;;
21330;SDS011;10824;51.632;4.950;2023-04-06T14:25:33;6.72;;;3.88;;
21330;SDS011;10824;51.632;4.950;2023-04-06T14:28:01;8.85;;;3.42;;
21330;SDS011;10824;51.632;4.950;2023-04-06T14:30:31;6.55;;;3.28;;
21330;SDS011;10824;51.632;4.950;2023-04-06T14:32:59;3.30;;;2.80;;
21330;SDS011;10824;51.632;4.950;2023-04-06T14:35:26;6.45;;;3.70;;
21330;SDS011;10824;51.632;4.950;2023-04-06T14:37:55;5.85;;;4.13;;
21330;SDS011;10824;51.632;4.950;2023-04-06T14:40:26;7.35;;;3.53;;
21330;SDS011;10824;51.632;4.950;2023-04-06T14:42:53;8.68;;;4.03;;
21330;SDS011;10824;51.632;4.950;2023-04-06T14:45:21;7.65;;;3.83;;
21330;SDS011;10824;51.632;4.950;2023-04-06T14:47:49;6.35;;;3.78;;
21330;SDS011;10824;51.632;4.950;2023-04-06T14:50:16;7.18;;;3.85;;
21330;SDS011;10824;51.632;4.950;2023-04-06T14:52:43;5.47;;;3.15;;
21330;SDS011;10824;51.632;4.950;2023-04-06T14:55:12;4.88;;;3.60;;
21330;SDS011;10824;51.632;4.950;2023-04-06T14:57:40;9.07;;;3.92;;
21330;SDS011;10824;51.632;4.950;2023-04-06T15:00:07;6.57;;;3.35;;
21330;SDS011;10824;51.632;4.950;2023-04-06T15:02:35;4.95;;;3.20;;
21330;SDS011;10824;51.632;4.950;2023-04-06T15:05:03;7.97;;;3.85;;
21330;SDS011;10824;51.632;4.950;2023-04-06T15:07:32;8.32;;;3.95;;